Time;durP1;ratioP1;P1;durP2;ratioP2;P2;SDS_P1;SDS_P2;PMS_P1;PMS_P2;Temp;Humidity;BMP_temperature;BMP_pressure;BME280_temperature;BME280_humidity;BME280_pressure;Samples;Min_cycle;Max_cycle;Signal;HPM_P1;HPM_P2
2023/02/28 00:00:00;;;;;;;7.33;4.47;;;0.60;99.90;;;;;;4993744;28;20251;-86
2023/02/28 00:02:27;;;;;;;7.10;4.60;;;0.60;99.90;;;;;;4997313;28;20451;-84
2023/02/28 00:05:00;;;;;;;7.83;4.33;;;0.70;99.90;;;;;;4995465;28;20232;-85
2023/02/28 00:07:29;;;;;;;7.70;4.30;;;0.70;99.90;;;;;;5002171;28;20311;-85
2023/02/28 00:09:55;;;;;;;7.20;4.37;;;0.70;99.90;;;;;;5015233;28;20216;-84
2023/02/28 00:12:22;;;;;;;7.10;4.53;;;0.70;99.90;;;;;;4995376;28;20208;-84
2023/02/28 00:14:49;;;;;;;7.07;4.20;;;0.70;99.90;;;;;;4999326;28;20272;-85
2023/02/28 00:17:17;;;;;;;7.43;4.37;;;0.70;99.90;;;;;;4996479;28;20217;-85
2023/02/28 00:19:44;;;;;;;8.93;4.63;;;0.60;99.90;;;;;;5002895;28;20705;-84
2023/02/28 00:22:11;;;;;;;7.87;4.70;;;0.70;99.90;;;;;;4989444;28;20295;-85
2023/02/28 00:24:39;;;;;;;8.47;4.40;;;0.70;99.90;;;;;;5003904;28;20255;-86
2023/02/28 00:27:06;;;;;;;8.10;4.30;;;0.60;99.90;;;;;;4996381;28;20304;-84
2023/02/28 00:29:33;;;;;;;8.60;4.63;;;0.50;99.90;;;;;;4999813;28;20236;-87
2023/02/28 00:31:59;;;;;;;5.30;3.90;;;0.40;99.90;;;;;;4987991;28;20311;-86
2023/02/28 00:34:26;;;;;;;10.03;5.20;;;0.30;99.90;;;;;;4992870;28;20709;-85
2023/02/28 00:36:53;;;;;;;7.87;4.37;;;0.10;99.90;;;;;;4992170;28;20213;-85
2023/02/28 00:39:20;;;;;;;10.10;4.70;;;0.10;99.90;;;;;;4993509;28;20213;-84
2023/02/28 00:41:48;;;;;;;8.70;5.27;;;0.10;99.90;;;;;;4994820;28;20216;-85
2023/02/28 00:44:15;;;;;;;8.97;5.07;;;0.00;99.90;;;;;;4991918;28;20308;-86
2023/02/28 00:46:42;;;;;;;6.87;4.47;;;-0.10;99.90;;;;;;4987775;28;20429;-84
2023/02/28 00:49:09;;;;;;;8.77;4.70;;;-0.20;99.90;;;;;;4992056;28;20300;-85
2023/02/28 00:51:35;;;;;;;9.63;5.40;;;-0.30;99.90;;;;;;5001735;28;20269;-85
2023/02/28 00:54:02;;;;;;;10.93;5.60;;;-0.30;99.90;;;;;;4992450;28;20282;-85
2023/02/28 00:56:29;;;;;;;6.77;4.87;;;-0.30;99.90;;;;;;4998265;28;20224;-85
2023/02/28 00:58:57;;;;;;;7.20;4.87;;;-0.50;99.90;;;;;;4997148;28;20228;-86
2023/02/28 01:01:24;;;;;;;6.10;4.17;;;-0.60;99.90;;;;;;4995405;28;20370;-85
2023/02/28 01:03:51;;;;;;;7.20;4.93;;;-0.60;99.90;;;;;;4993149;28;20228;-84
2023/02/28 01:06:18;;;;;;;8.13;4.90;;;-0.80;99.90;;;;;;4995956;28;20205;-86
2023/02/28 01:08:44;;;;;;;7.70;5.13;;;-0.80;99.90;;;;;;4999284;28;20672;-84
2023/02/28 01:11:15;;;;;;;9.67;4.40;;;-0.90;99.90;;;;;;4990102;28;20199;-86
2023/02/28 01:13:42;;;;;;;7.20;4.93;;;-1.00;99.90;;;;;;4989745;28;20212;-86
2023/02/28 01:16:10;;;;;;;7.67;5.17;;;-1.00;99.90;;;;;;4987512;28;20223;-86
2023/02/28 01:18:38;;;;;;;6.73;4.83;;;-1.00;99.90;;;;;;4985477;28;20221;-84
2023/02/28 01:21:05;;;;;;;7.83;5.43;;;-0.90;99.90;;;;;;4989535;28;20205;-84
2023/02/28 01:23:32;;;;;;;8.60;5.03;;;-0.90;99.90;;;;;;4988637;28;20212;-84
2023/02/28 01:26:05;;;;;;;11.83;5.53;;;-1.00;99.90;;;;;;4987638;28;20292;-83
2023/02/28 01:28:32;;;;;;;9.70;4.80;;;-1.10;99.90;;;;;;4987941;28;20609;-84
2023/02/28 01:30:58;;;;;;;9.50;5.13;;;-1.10;99.90;;;;;;4989559;28;20211;-84
2023/02/28 01:33:27;;;;;;;8.77;4.67;;;-1.20;99.90;;;;;;4982110;28;20209;-84
2023/02/28 01:35:59;;;;;;;9.27;5.30;;;-1.20;99.90;;;;;;4986842;28;20213;-84
2023/02/28 01:38:26;;;;;;;9.90;5.60;;;-1.00;99.90;;;;;;4986584;28;20228;-85
2023/02/28 01:40:52;;;;;;;8.20;5.27;;;-1.00;99.90;;;;;;4984686;28;20209;-84
2023/02/28 01:43:23;;;;;;;7.97;5.63;;;-1.20;99.90;;;;;;4986209;28;20217;-84
2023/02/28 01:45:50;;;;;;;8.07;5.27;;;-1.30;99.90;;;;;;4987058;28;20247;-85
2023/02/28 01:48:17;;;;;;;9.53;5.60;;;-1.30;99.90;;;;;;4984624;28;20548;-85
2023/02/28 01:50:48;;;;;;;10.40;5.87;;;-1.20;99.90;;;;;;4990935;28;20197;-85
2023/02/28 01:53:19;;;;;;;9.33;5.40;;;-1.40;99.90;;;;;;4992216;28;20208;-85
2023/02/28 01:55:51;;;;;;;8.73;5.40;;;-1.30;99.90;;;;;;4991630;28;20200;-85
2023/02/28 01:58:18;;;;;;;8.13;5.17;;;-1.40;99.90;;;;;;4985425;28;20220;-84
2023/02/28 02:00:45;;;;;;;8.97;5.37;;;-1.50;99.90;;;;;;4991456;28;20212;-85
2023/02/28 02:03:15;;;;;;;8.30;5.00;;;-1.30;99.90;;;;;;4998862;28;20226;-84
2023/02/28 02:05:47;;;;;;;8.83;5.33;;;-1.40;99.90;;;;;;4990948;28;20220;-84
2023/02/28 02:08:20;;;;;;;9.97;5.80;;;-1.50;99.90;;;;;;4986096;28;20224;-84
2023/02/28 02:10:50;;;;;;;10.83;5.70;;;-1.60;99.90;;;;;;4988926;28;20216;-84
2023/02/28 02:13:49;;;;;;;9.73;5.80;;;-1.60;99.90;;;;;;4978445;28;20201;-84
2023/02/28 02:16:28;;;;;;;10.20;6.20;;;-1.50;99.90;;;;;;4987405;28;20211;-84
2023/02/28 02:19:03;;;;;;;8.37;5.40;;;-1.50;99.90;;;;;;4984463;28;20220;-84
2023/02/28 02:22:02;;;;;;;8.20;6.10;;;-1.70;99.90;;;;;;4987662;28;20223;-84
2023/02/28 02:24:48;;;;;;;9.17;6.00;;;-1.70;99.90;;;;;;4982368;28;20232;-84
2023/02/28 02:27:24;;;;;;;8.63;5.60;;;-1.80;99.90;;;;;;4999133;28;20296;-84
2023/02/28 02:30:31;;;;;;;10.47;5.97;;;-1.90;99.90;;;;;;4988404;28;20227;-84
2023/02/28 02:33:49;;;;;;;10.27;5.70;;;-2.00;99.90;;;;;;4995710;28;20200;-84
2023/02/28 02:36:23;;;;;;;10.27;5.97;;;-1.90;99.90;;;;;;4979311;28;20207;-85
2023/02/28 02:38:54;;;;;;;10.60;5.93;;;-2.00;99.90;;;;;;4985732;28;20220;-85
2023/02/28 02:41:29;;;;;;;12.30;6.40;;;-2.00;99.90;;;;;;4986917;28;20568;-84
2023/02/28 02:44:02;;;;;;;8.30;5.97;;;-1.90;99.90;;;;;;4988502;28;20208;-84
2023/02/28 02:46:34;;;;;;;10.63;6.77;;;-1.80;99.90;;;;;;4984825;28;20208;-84
2023/02/28 02:49:04;;;;;;;10.07;6.10;;;-1.80;99.90;;;;;;4984120;28;20954;-84
2023/02/28 02:51:34;;;;;;;11.70;5.53;;;-1.80;99.90;;;;;;4988067;28;20211;-84
2023/02/28 02:54:07;;;;;;;10.13;5.60;;;-1.90;99.90;;;;;;4985767;28;20380;-84
2023/02/28 02:56:36;;;;;;;9.17;5.97;;;-2.10;99.90;;;;;;4992863;28;20213;-84
2023/02/28 02:59:07;;;;;;;8.80;5.67;;;-2.10;99.90;;;;;;4978788;28;20209;-84
2023/02/28 03:01:37;;;;;;;9.20;5.77;;;-2.20;99.90;;;;;;4986675;28;20669;-84
2023/02/28 03:04:07;;;;;;;11.13;5.87;;;-2.30;99.90;;;;;;4987032;28;20693;-84
2023/02/28 03:06:35;;;;;;;12.27;6.67;;;-2.10;99.90;;;;;;4993924;28;20200;-84
2023/02/28 03:09:04;;;;;;;11.57;6.27;;;-1.90;99.90;;;;;;4984430;28;20236;-84
2023/02/28 03:11:32;;;;;;;10.30;6.53;;;-2.00;99.90;;;;;;4986502;28;20612;-84
2023/02/28 03:14:17;;;;;;;12.87;6.57;;;-1.90;99.90;;;;;;4984235;28;20213;-84
2023/02/28 03:17:15;;;;;;;9.93;5.90;;;-1.90;99.90;;;;;;4981398;28;20225;-84
2023/02/28 03:20:06;;;;;;;11.73;6.37;;;-1.90;99.90;;;;;;4979709;28;20210;-84
2023/02/28 03:22:58;;;;;;;11.57;6.33;;;-2.00;99.90;;;;;;4985791;28;20736;-84
2023/02/28 03:25:34;;;;;;;9.03;5.67;;;-1.80;99.90;;;;;;4986136;28;20235;-84
2023/02/28 03:28:07;;;;;;;8.27;5.53;;;-1.90;99.90;;;;;;4989262;28;20229;-84
2023/02/28 03:30:42;;;;;;;8.63;5.60;;;-2.10;99.90;;;;;;4990841;28;20205;-84
2023/02/28 03:33:12;;;;;;;9.00;5.77;;;-2.00;99.90;;;;;;4981947;28;20429;-84
2023/02/28 03:35:43;;;;;;;12.23;7.30;;;-2.00;99.90;;;;;;4992513;28;20205;-84
2023/02/28 03:38:16;;;;;;;11.30;6.43;;;-1.90;99.90;;;;;;4985055;28;20225;-84
2023/02/28 03:40:47;;;;;;;8.90;5.70;;;-2.10;99.90;;;;;;4985944;28;20207;-84
2023/02/28 03:43:21;;;;;;;10.63;5.90;;;-2.00;99.90;;;;;;4983117;28;20205;-84
2023/02/28 03:45:50;;;;;;;8.30;5.37;;;-2.10;99.90;;;;;;4994510;28;20718;-84
2023/02/28 03:48:23;;;;;;;9.67;5.57;;;-2.20;99.90;;;;;;4994701;28;20230;-85
2023/02/28 03:50:53;;;;;;;7.90;5.33;;;-2.20;99.90;;;;;;4992316;28;20693;-85
2023/02/28 03:53:26;;;;;;;9.23;5.40;;;-2.10;99.90;;;;;;4994018;28;20235;-84
2023/02/28 03:55:58;;;;;;;8.37;5.37;;;-2.10;99.90;;;;;;4987117;28;20235;-84
2023/02/28 03:58:33;;;;;;;9.30;5.90;;;-2.10;99.90;;;;;;4993332;28;20224;-84
2023/02/28 04:01:08;;;;;;;8.30;5.70;;;-2.10;99.90;;;;;;4985750;28;20204;-83
2023/02/28 04:03:36;;;;;;;9.83;5.63;;;-2.10;99.90;;;;;;4986465;28;20205;-84
2023/02/28 04:06:03;;;;;;;7.87;5.37;;;-2.20;99.90;;;;;;4988156;28;20229;-83
2023/02/28 04:08:31;;;;;;;7.87;4.90;;;-2.60;99.90;;;;;;4984563;28;20221;-84
2023/02/28 04:11:04;;;;;;;8.37;5.10;;;-2.60;99.90;;;;;;4993176;28;20216;-84
2023/02/28 04:13:31;;;;;;;10.77;5.50;;;-2.40;99.90;;;;;;5005077;28;20201;-84
2023/02/28 04:15:58;;;;;;;8.47;5.40;;;-2.40;99.90;;;;;;4996609;28;20364;-84
2023/02/28 04:18:25;;;;;;;10.47;5.73;;;-2.50;99.90;;;;;;4993774;28;20217;-85
2023/02/28 04:20:52;;;;;;;11.80;6.67;;;-2.40;99.90;;;;;;4991179;28;20213;-82
2023/02/28 04:23:18;;;;;;;10.13;5.30;;;-2.60;99.90;;;;;;4988566;28;20219;-83
2023/02/28 04:25:47;;;;;;;9.20;5.83;;;-2.60;99.90;;;;;;4995032;28;20221;-84
2023/02/28 04:28:13;;;;;;;8.23;5.37;;;-2.50;99.90;;;;;;4984659;28;20898;-85
2023/02/28 04:30:40;;;;;;;7.13;4.90;;;-2.40;99.90;;;;;;4995627;28;20640;-81
2023/02/28 04:33:07;;;;;;;10.50;5.67;;;-2.30;99.90;;;;;;4997065;28;20212;-84
2023/02/28 04:35:34;;;;;;;8.17;5.50;;;-2.20;99.90;;;;;;5000907;28;20324;-83
2023/02/28 04:38:00;;;;;;;11.23;6.20;;;-2.20;99.90;;;;;;4989155;28;20227;-83
2023/02/28 04:40:27;;;;;;;8.67;5.67;;;-2.40;99.90;;;;;;4996854;28;20407;-83
2023/02/28 04:42:55;;;;;;;8.37;5.07;;;-2.50;99.90;;;;;;4992948;28;20716;-84
2023/02/28 04:45:22;;;;;;;9.67;5.00;;;-2.30;99.90;;;;;;5000253;28;20220;-83
2023/02/28 04:47:49;;;;;;;8.30;5.23;;;-2.30;99.90;;;;;;5001598;28;20252;-82
2023/02/28 04:50:16;;;;;;;10.00;6.17;;;-2.10;99.90;;;;;;4999562;28;20205;-82
2023/02/28 04:52:43;;;;;;;12.17;6.63;;;-2.00;99.90;;;;;;5007906;28;20278;-83
2023/02/28 04:55:10;;;;;;;8.90;6.10;;;-1.90;99.90;;;;;;5000312;28;20292;-83
2023/02/28 04:57:37;;;;;;;7.57;5.67;;;-1.90;99.90;;;;;;5000841;28;20957;-83
2023/02/28 05:00:11;;;;;;;12.07;6.63;;;-1.90;99.90;;;;;;4994471;28;20217;-83
2023/02/28 05:02:38;;;;;;;8.93;6.00;;;-1.80;99.90;;;;;;5001122;28;20217;-83
2023/02/28 05:05:06;;;;;;;10.60;5.97;;;-1.90;99.90;;;;;;5003630;28;20217;-83
2023/02/28 05:07:32;;;;;;;9.73;6.40;;;-2.00;99.90;;;;;;4994106;28;20229;-82
2023/02/28 05:09:59;;;;;;;9.53;6.17;;;-2.00;99.90;;;;;;5006836;28;20212;-82
2023/02/28 05:12:26;;;;;;;7.60;5.27;;;-2.00;99.90;;;;;;5000431;28;20296;-82
2023/02/28 05:14:53;;;;;;;10.70;5.87;;;-1.90;99.90;;;;;;4996395;28;20227;-82
2023/02/28 05:17:21;;;;;;;9.67;6.33;;;-1.90;99.90;;;;;;5004775;28;20221;-82
2023/02/28 05:19:48;;;;;;;9.63;5.70;;;-1.80;99.90;;;;;;4994663;28;20488;-80
2023/02/28 05:22:17;;;;;;;8.33;5.60;;;-1.70;99.90;;;;;;4990283;28;20206;-87
2023/02/28 05:24:44;;;;;;;8.50;5.70;;;-1.90;99.90;;;;;;4995267;28;20205;-84
2023/02/28 05:27:11;;;;;;;12.60;6.00;;;-2.00;99.90;;;;;;4994488;28;20697;-84
2023/02/28 05:29:41;;;;;;;9.57;6.03;;;-1.90;99.90;;;;;;4992757;28;20220;-84
2023/02/28 05:32:09;;;;;;;9.87;6.07;;;-2.00;99.90;;;;;;4987502;28;20221;-84
2023/02/28 05:34:38;;;;;;;8.50;5.67;;;-2.10;99.90;;;;;;4993210;28;20610;-83
2023/02/28 05:37:06;;;;;;;10.30;6.07;;;-1.90;99.90;;;;;;4987898;28;20230;-84
2023/02/28 05:39:33;;;;;;;12.53;6.40;;;-1.90;99.90;;;;;;4976522;28;20264;-84
2023/02/28 05:42:00;;;;;;;8.47;5.70;;;-2.00;99.90;;;;;;4975835;28;20221;-84
2023/02/28 05:44:28;;;;;;;8.23;5.50;;;-2.00;99.90;;;;;;4975878;28;20556;-83
2023/02/28 05:46:55;;;;;;;9.77;6.17;;;-2.00;99.90;;;;;;4975325;28;20229;-83
2023/02/28 05:49:22;;;;;;;10.37;6.50;;;-2.30;99.90;;;;;;4976971;28;20210;-83
2023/02/28 05:51:50;;;;;;;9.47;5.47;;;-2.30;99.90;;;;;;4973395;28;20214;-84
2023/02/28 05:54:17;;;;;;;9.03;6.23;;;-2.30;99.90;;;;;;4977140;28;20209;-84
2023/02/28 05:56:45;;;;;;;9.50;5.90;;;-2.30;99.90;;;;;;4976668;28;20210;-83
2023/02/28 05:59:12;;;;;;;8.53;5.83;;;-2.20;99.90;;;;;;4993513;28;20682;-83
2023/02/28 06:01:47;;;;;;;10.43;6.00;;;-2.20;99.90;;;;;;4993322;28;20213;-84
2023/02/28 06:04:17;;;;;;;9.23;5.90;;;-2.30;99.90;;;;;;4991385;28;20216;-84
2023/02/28 06:06:44;;;;;;;10.47;6.13;;;-2.30;99.90;;;;;;4993958;28;20279;-84
2023/02/28 06:09:13;;;;;;;8.60;5.73;;;-2.40;99.90;;;;;;4977546;28;20613;-84
2023/02/28 06:11:39;;;;;;;11.07;6.90;;;-2.50;99.90;;;;;;4977885;28;20237;-84
2023/02/28 06:14:07;;;;;;;9.93;6.20;;;-2.70;99.90;;;;;;4975863;28;20232;-84
2023/02/28 06:16:35;;;;;;;11.47;6.90;;;-2.70;99.90;;;;;;4990295;28;20213;-83
2023/02/28 06:19:04;;;;;;;11.33;7.27;;;-2.50;99.90;;;;;;4994700;28;20615;-83
2023/02/28 06:21:31;;;;;;;11.43;6.73;;;-2.50;99.90;;;;;;4996345;28;20239;-84
2023/02/28 06:23:59;;;;;;;10.93;7.00;;;-2.40;99.90;;;;;;4995507;28;20200;-83
2023/02/28 06:26:27;;;;;;;13.53;7.27;;;-2.30;99.90;;;;;;4996008;28;20257;-83
2023/02/28 06:28:54;;;;;;;12.13;7.00;;;-2.20;99.90;;;;;;4993316;28;20237;-83
2023/02/28 06:31:22;;;;;;;15.57;7.53;;;-2.20;99.90;;;;;;4994088;28;20219;-83
2023/02/28 06:33:50;;;;;;;16.27;10.47;;;-2.20;99.90;;;;;;4994510;28;20684;-82
2023/02/28 06:36:17;;;;;;;17.50;9.87;;;-2.10;99.90;;;;;;4993971;28;20212;-83
2023/02/28 06:38:44;;;;;;;13.13;7.83;;;-2.10;99.90;;;;;;4990946;28;20296;-83
2023/02/28 06:41:12;;;;;;;12.77;7.60;;;-2.30;99.90;;;;;;4982419;28;20296;-84
2023/02/28 06:43:42;;;;;;;11.90;8.10;;;-2.50;99.90;;;;;;4976332;28;20224;-83
2023/02/28 06:46:11;;;;;;;12.77;8.07;;;-2.50;99.90;;;;;;4975672;28;20225;-84
2023/02/28 06:48:38;;;;;;;14.57;8.07;;;-2.60;99.90;;;;;;4974653;28;20233;-83
2023/02/28 06:51:07;;;;;;;13.03;7.83;;;-2.50;99.90;;;;;;4977518;28;20213;-84
2023/02/28 06:53:34;;;;;;;12.03;7.70;;;-2.30;99.90;;;;;;4976661;28;20219;-83
2023/02/28 06:56:05;;;;;;;10.07;7.20;;;-2.10;99.90;;;;;;4975633;28;20300;-83
2023/02/28 06:58:32;;;;;;;13.20;8.23;;;-2.00;99.90;;;;;;4976266;28;20232;-84
2023/02/28 07:01:00;;;;;;;13.57;7.90;;;-1.90;99.90;;;;;;4981877;28;20213;-83
2023/02/28 07:03:27;;;;;;;12.83;8.07;;;-1.90;99.90;;;;;;4994712;28;20303;-84
2023/02/28 07:05:56;;;;;;;11.30;7.30;;;-2.00;99.90;;;;;;4995451;28;20613;-84
2023/02/28 07:08:23;;;;;;;13.73;8.23;;;-2.00;99.90;;;;;;4998696;28;20229;-84
2023/02/28 07:10:53;;;;;;;14.27;8.13;;;-2.00;99.90;;;;;;4984144;28;20216;-84
2023/02/28 07:13:19;;;;;;;9.90;6.73;;;-1.90;99.90;;;;;;4976618;28;20220;-84
2023/02/28 07:15:54;;;;;;;12.03;6.93;;;-1.80;99.90;;;;;;4980573;28;20206;-84
2023/02/28 07:18:22;;;;;;;10.63;7.20;;;-1.80;99.90;;;;;;4981934;28;20228;-84
2023/02/28 07:20:49;;;;;;;10.47;6.97;;;-1.70;99.90;;;;;;4986418;28;20213;-83
2023/02/28 07:23:16;;;;;;;11.67;7.43;;;-1.50;99.90;;;;;;4998942;28;20215;-83
2023/02/28 07:25:43;;;;;;;11.27;7.60;;;-1.50;99.90;;;;;;4999013;28;20224;-83
2023/02/28 07:28:10;;;;;;;18.67;12.00;;;-1.40;99.90;;;;;;4998527;28;20693;-84
2023/02/28 07:30:37;;;;;;;16.50;10.93;;;-1.20;99.90;;;;;;4997578;28;20307;-84
2023/02/28 07:33:04;;;;;;;21.47;11.37;;;-0.80;99.90;;;;;;4999101;28;20276;-84
2023/02/28 07:35:32;;;;;;;15.70;9.70;;;-0.80;99.90;;;;;;4996628;28;20213;-84
2023/02/28 07:38:00;;;;;;;17.23;9.23;;;-0.60;99.90;;;;;;4998827;28;20824;-84
2023/02/28 07:40:27;;;;;;;14.63;9.17;;;-0.70;99.90;;;;;;5001462;28;20857;-84
2023/02/28 07:42:54;;;;;;;18.80;9.80;;;-0.50;99.90;;;;;;5002087;28;20207;-84
2023/02/28 07:45:21;;;;;;;15.20;10.17;;;0.40;99.90;;;;;;4995149;28;20230;-84
2023/02/28 07:47:47;;;;;;;15.63;9.37;;;0.40;99.90;;;;;;4996229;28;20500;-84
2023/02/28 07:50:16;;;;;;;18.90;9.73;;;1.50;99.90;;;;;;4998381;28;20213;-84
2023/02/28 07:52:44;;;;;;;13.80;8.33;;;1.80;99.90;;;;;;4992985;28;20652;-84
2023/02/28 07:55:11;;;;;;;13.10;7.60;;;0.90;99.90;;;;;;4980498;28;20202;-84
2023/02/28 07:57:38;;;;;;;13.67;7.53;;;0.50;99.90;;;;;;4979092;28;20264;-84
2023/02/28 08:00:07;;;;;;;12.07;7.00;;;0.70;99.90;;;;;;4976121;28;20208;-84
2023/02/28 08:02:33;;;;;;;12.37;7.00;;;1.30;99.90;;;;;;4978744;28;20218;-84
2023/02/28 08:05:01;;;;;;;11.37;6.67;;;1.20;99.90;;;;;;4975751;28;20300;-84
2023/02/28 08:07:28;;;;;;;9.80;6.73;;;1.20;99.90;;;;;;4977246;28;20720;-84
2023/02/28 08:09:56;;;;;;;14.13;7.17;;;1.80;99.90;;;;;;4976451;28;20223;-84
2023/02/28 08:12:22;;;;;;;12.47;7.73;;;2.10;99.90;;;;;;4977279;28;20213;-84
2023/02/28 08:14:49;;;;;;;10.80;6.83;;;1.80;99.90;;;;;;4978482;28;20206;-84
2023/02/28 08:17:16;;;;;;;12.57;6.70;;;1.30;99.90;;;;;;4978801;28;20316;-84
2023/02/28 08:19:43;;;;;;;11.40;6.70;;;2.30;99.90;;;;;;4977998;28;20207;-84
2023/02/28 08:22:10;;;;;;;11.40;6.70;;;2.60;99.90;;;;;;4980537;28;20575;-84
2023/02/28 08:24:36;;;;;;;11.60;6.27;;;3.30;99.90;;;;;;4997413;28;20297;-84
2023/02/28 08:27:05;;;;;;;15.30;6.50;;;3.50;99.90;;;;;;4976163;28;20236;-84
2023/02/28 08:29:31;;;;;;;12.23;6.80;;;3.90;99.90;;;;;;4978108;28;20220;-85
2023/02/28 08:31:58;;;;;;;12.90;5.97;;;2.70;99.90;;;;;;4977548;28;20214;-84
2023/02/28 08:34:25;;;;;;;13.13;6.67;;;2.60;99.90;;;;;;4976796;28;20209;-85
2023/02/28 08:36:52;;;;;;;13.23;6.20;;;3.20;99.90;;;;;;4978031;28;20297;-84
2023/02/28 08:39:19;;;;;;;12.43;6.20;;;3.10;99.90;;;;;;4998391;28;20702;-85
2023/02/28 08:41:46;;;;;;;10.73;6.10;;;4.10;99.90;;;;;;4999098;28;20604;-85
2023/02/28 08:44:14;;;;;;;12.37;6.00;;;3.20;99.90;;;;;;4999434;28;20219;-85
2023/02/28 08:46:41;;;;;;;12.30;6.03;;;3.50;99.90;;;;;;4998471;28;20256;-84
2023/02/28 08:49:09;;;;;;;10.83;5.87;;;2.60;99.90;;;;;;4998115;28;20209;-84
2023/02/28 08:51:36;;;;;;;10.97;5.53;;;2.40;99.90;;;;;;4997863;28;20213;-84
2023/02/28 08:54:03;;;;;;;8.77;5.27;;;3.00;99.90;;;;;;4999173;28;20205;-84
2023/02/28 08:56:30;;;;;;;7.67;4.30;;;2.50;99.90;;;;;;4998764;28;20215;-85
2023/02/28 08:58:58;;;;;;;7.93;3.60;;;2.50;99.90;;;;;;5001485;28;20252;-84
2023/02/28 09:01:28;;;;;;;8.00;4.37;;;2.60;99.90;;;;;;5001558;28;20297;-84
2023/02/28 09:03:56;;;;;;;6.93;4.00;;;2.80;99.90;;;;;;4999255;28;20292;-85
2023/02/28 09:06:25;;;;;;;7.30;4.87;;;2.40;99.90;;;;;;4997751;28;20264;-84
2023/02/28 09:08:53;;;;;;;7.37;4.27;;;2.10;99.90;;;;;;4997358;28;20236;-84
2023/02/28 09:11:20;;;;;;;9.37;4.07;;;2.20;99.90;;;;;;5000776;28;20243;-84
2023/02/28 09:13:47;;;;;;;7.40;4.50;;;2.40;99.90;;;;;;5013227;28;20218;-86
2023/02/28 09:16:16;;;;;;;8.87;4.10;;;2.40;99.90;;;;;;4996670;28;20220;-84
2023/02/28 09:18:45;;;;;;;5.27;3.40;;;2.70;99.90;;;;;;4997126;28;20572;-85
2023/02/28 09:21:16;;;;;;;5.83;3.63;;;2.70;99.90;;;;;;4998292;28;20219;-84
2023/02/28 09:23:44;;;;;;;7.30;3.77;;;2.90;99.90;;;;;;4999171;28;20240;-84
2023/02/28 09:26:14;;;;;;;6.10;3.90;;;3.00;99.90;;;;;;4998681;28;20289;-85
2023/02/28 09:28:41;;;;;;;8.50;4.20;;;3.40;99.90;;;;;;4996974;28;20220;-84
2023/02/28 09:31:13;;;;;;;6.80;3.57;;;3.40;99.90;;;;;;5000319;28;20213;-84
2023/02/28 09:33:41;;;;;;;6.17;3.40;;;3.60;99.90;;;;;;4998659;28;20259;-84
2023/02/28 09:36:09;;;;;;;5.03;3.40;;;3.50;99.90;;;;;;4996189;28;20193;-85
2023/02/28 09:38:36;;;;;;;7.20;4.03;;;3.60;99.90;;;;;;4996688;28;20225;-86
2023/02/28 09:41:10;;;;;;;5.57;3.57;;;3.20;99.90;;;;;;4997834;28;20213;-85
2023/02/28 09:43:41;;;;;;;6.03;3.73;;;3.80;99.90;;;;;;4996818;28;20239;-84
2023/02/28 09:46:15;;;;;;;4.47;2.97;;;3.80;99.90;;;;;;4996279;28;20267;-84
2023/02/28 09:48:46;;;;;;;5.13;3.20;;;3.80;99.90;;;;;;4996844;28;20316;-84
2023/02/28 09:51:27;;;;;;;9.23;3.67;;;3.80;99.90;;;;;;4997434;28;20348;-86
2023/02/28 09:53:54;;;;;;;6.60;3.70;;;3.80;99.90;;;;;;4996172;28;20207;-86
2023/02/28 09:56:27;;;;;;;5.80;3.90;;;3.90;99.90;;;;;;4997832;28;20569;-84
2023/02/28 09:58:58;;;;;;;6.67;3.70;;;3.90;99.90;;;;;;4996995;28;20566;-83
2023/02/28 10:01:32;;;;;;;6.90;3.63;;;4.00;99.90;;;;;;4997215;28;20689;-85
2023/02/28 10:04:03;;;;;;;4.43;2.93;;;4.20;99.90;;;;;;4996437;28;20423;-86
2023/02/28 10:06:37;;;;;;;6.53;3.77;;;4.20;99.90;;;;;;4996525;28;20225;-86
2023/02/28 10:09:09;;;;;;;6.70;4.00;;;4.30;99.90;;;;;;4996577;28;20216;-85
2023/02/28 10:11:38;;;;;;;7.73;4.03;;;4.30;99.90;;;;;;4998046;28;20505;-84
2023/02/28 10:14:14;;;;;;;8.67;4.03;;;4.60;99.90;;;;;;4995668;28;20724;-84
2023/02/28 10:16:47;;;;;;;7.83;3.80;;;4.70;99.90;;;;;;4996746;28;20217;-84
2023/02/28 10:19:19;;;;;;;6.70;3.50;;;4.60;99.90;;;;;;4996166;28;20236;-84
2023/02/28 10:21:55;;;;;;;7.67;4.13;;;4.60;99.90;;;;;;4996988;28;20240;-86
2023/02/28 10:24:28;;;;;;;7.77;3.67;;;4.80;99.90;;;;;;4996614;28;20251;-86
2023/02/28 10:27:00;;;;;;;5.90;3.40;;;4.90;99.90;;;;;;4997071;28;20641;-85
2023/02/28 10:29:27;;;;;;;6.77;3.43;;;4.90;99.90;;;;;;4996273;28;20215;-85
2023/02/28 10:31:54;;;;;;;7.43;3.40;;;4.70;99.90;;;;;;4996504;28;20263;-84
2023/02/28 10:34:21;;;;;;;6.30;3.30;;;4.80;99.90;;;;;;4996652;28;20217;-86
2023/02/28 10:36:51;;;;;;;8.37;3.87;;;5.20;99.90;;;;;;4996058;28;20292;-84
2023/02/28 10:39:39;;;;;;;6.23;3.87;;;5.00;99.90;;;;;;4996573;28;20224;-84
2023/02/28 10:42:06;;;;;;;6.07;3.47;;;5.20;99.90;;;;;;4997793;28;20201;-85
2023/02/28 10:44:33;;;;;;;6.10;3.27;;;4.90;99.90;;;;;;4996889;28;20212;-83
2023/02/28 10:47:00;;;;;;;6.73;3.60;;;5.00;99.90;;;;;;4997778;28;20236;-85
2023/02/28 10:49:29;;;;;;;5.33;3.47;;;5.20;99.90;;;;;;4996353;28;20205;-85
2023/02/28 10:51:58;;;;;;;4.87;3.53;;;5.10;99.90;;;;;;4994935;28;20237;-84
2023/02/28 10:54:30;;;;;;;4.83;3.07;;;5.20;99.90;;;;;;4995840;28;20579;-86
2023/02/28 10:57:19;;;;;;;5.87;3.80;;;5.30;99.90;;;;;;4997927;28;20315;-86
2023/02/28 10:59:46;;;;;;;6.40;3.37;;;5.40;99.90;;;;;;4995255;28;20552;-86
2023/02/28 11:02:34;;;;;;;5.33;3.13;;;5.40;99.90;;;;;;4997248;28;20230;-85
2023/02/28 11:05:01;;;;;;;4.87;3.37;;;5.50;99.90;;;;;;4992286;28;20693;-86
2023/02/28 11:07:30;;;;;;;5.10;3.33;;;5.70;99.90;;;;;;4996326;28;20252;-86
2023/02/28 11:09:58;;;;;;;7.67;3.50;;;5.70;99.90;;;;;;4996039;28;20239;-85
2023/02/28 11:12:29;;;;;;;6.40;3.33;;;5.60;99.90;;;;;;4996485;28;20223;-85
2023/02/28 11:14:59;;;;;;;4.90;3.03;;;5.70;99.90;;;;;;4996385;28;20205;-86
2023/02/28 11:17:28;;;;;;;5.83;3.63;;;5.40;99.90;;;;;;4994910;28;20424;-85
2023/02/28 11:19:58;;;;;;;5.77;2.60;;;5.10;99.90;;;;;;4994745;28;20219;-85
2023/02/28 11:22:28;;;;;;;4.07;3.07;;;4.70;99.90;;;;;;4993873;28;20201;-84
2023/02/28 11:24:59;;;;;;;5.77;3.00;;;4.60;99.90;;;;;;4995791;28;20224;-86
2023/02/28 11:27:40;;;;;;;5.40;3.17;;;4.70;99.90;;;;;;4996943;28;20225;-85
2023/02/28 11:30:28;;;;;;;3.67;2.50;;;4.70;99.90;;;;;;4996933;28;20243;-85
2023/02/28 11:32:55;;;;;;;4.53;2.70;;;4.60;99.90;;;;;;4994790;28;20217;-86
2023/02/28 11:35:26;;;;;;;6.33;3.13;;;4.60;99.90;;;;;;4996264;28;20219;-85
2023/02/28 11:37:53;;;;;;;5.57;3.20;;;4.50;99.90;;;;;;4994905;28;20217;-84
2023/02/28 11:40:29;;;;;;;5.90;3.00;;;4.50;99.90;;;;;;4995646;28;20201;-88
2023/02/28 11:43:05;;;;;;;4.60;3.23;;;5.10;99.90;;;;;;4993246;28;20209;-86
2023/02/28 11:45:46;;;;;;;6.73;3.40;;;5.00;99.90;;;;;;4996288;28;20277;-87
2023/02/28 11:48:21;;;;;;;5.53;3.30;;;5.00;99.90;;;;;;4999487;28;20715;-85
2023/02/28 11:50:58;;;;;;;8.40;4.00;;;4.80;99.90;;;;;;4996990;28;20211;-86
2023/02/28 11:53:45;;;;;;;3.90;3.13;;;5.00;99.90;;;;;;4999154;28;20575;-86
2023/02/28 11:56:20;;;;;;;4.20;3.03;;;5.50;99.90;;;;;;4998684;28;20215;-84
2023/02/28 11:58:55;;;;;;;6.10;3.97;;;5.30;99.90;;;;;;4997032;28;20237;-84
2023/02/28 12:01:37;;;;;;;4.57;3.10;;;4.90;99.90;;;;;;4999119;28;20231;-85
2023/02/28 12:04:22;;;;;;;4.60;2.97;;;4.80;99.90;;;;;;4998494;28;20204;-84
2023/02/28 12:06:57;;;;;;;4.97;2.87;;;4.70;99.90;;;;;;4999988;28;20507;-83
2023/02/28 12:09:41;;;;;;;6.50;2.90;;;4.60;99.90;;;;;;4998151;28;20228;-84
2023/02/28 12:12:22;;;;;;;4.33;2.80;;;4.80;99.90;;;;;;4999689;28;20377;-84
2023/02/28 12:15:20;;;;;;;5.00;2.90;;;4.80;99.90;;;;;;5000207;28;20311;-84
2023/02/28 12:18:04;;;;;;;3.67;2.20;;;4.60;99.90;;;;;;4994387;28;20225;-84
2023/02/28 12:20:37;;;;;;;4.47;2.17;;;4.60;99.90;;;;;;4999355;28;20605;-84
2023/02/28 12:23:36;;;;;;;3.73;2.10;;;4.40;99.90;;;;;;4999858;28;20269;-84
2023/02/28 12:26:19;;;;;;;8.77;3.10;;;4.30;99.90;;;;;;5000372;28;20219;-87
2023/02/28 12:28:52;;;;;;;4.17;2.63;;;4.30;99.90;;;;;;4999004;28;20235;-84
2023/02/28 12:31:22;;;;;;;4.37;3.00;;;4.20;99.90;;;;;;4999467;28;20215;-86
2023/02/28 12:33:53;;;;;;;3.70;2.50;;;4.20;99.90;;;;;;5000443;28;20205;-84
2023/02/28 12:36:23;;;;;;;7.07;2.50;;;4.20;99.90;;;;;;4999672;28;20284;-84
2023/02/28 12:38:55;;;;;;;4.13;2.73;;;4.10;99.90;;;;;;4997071;28;20606;-85
2023/02/28 12:41:30;;;;;;;4.83;2.47;;;4.20;99.90;;;;;;4997987;28;20212;-86
2023/02/28 12:44:02;;;;;;;3.47;2.50;;;4.50;99.90;;;;;;4999232;28;20269;-86
2023/02/28 12:46:35;;;;;;;3.57;2.50;;;4.20;99.90;;;;;;4978852;28;20312;-83
2023/02/28 12:49:06;;;;;;;4.17;2.70;;;4.10;99.90;;;;;;4996109;28;20916;-84
2023/02/28 12:51:36;;;;;;;3.73;3.00;;;4.10;99.90;;;;;;4998026;28;20215;-86
2023/02/28 12:54:13;;;;;;;4.23;2.70;;;4.10;99.90;;;;;;4996250;28;20217;-84
2023/02/28 12:56:47;;;;;;;2.93;2.13;;;4.20;99.90;;;;;;4995596;28;20213;-86
2023/02/28 12:59:23;;;;;;;4.13;2.67;;;4.10;99.90;;;;;;4997648;28;20488;-85
2023/02/28 13:02:02;;;;;;;3.77;2.67;;;4.10;99.90;;;;;;4996703;28;20300;-85
2023/02/28 13:05:01;;;;;;;4.60;2.40;;;4.00;99.90;;;;;;4998463;28;20205;-86